Time;durP1;ratioP1;P1;durP2;ratioP2;P2;SDS_P1;SDS_P2;PMS_P1;PMS_P2;Temp;Humidity;BMP_temperature;BMP_pressure;BME280_temperature;BME280_humidity;BME280_pressure;Samples;Min_cycle;Max_cycle;Signal;HPM_P1;HPM_P2
2021/12/12 00:00:30;;;;;;;;;36.75;29.00;;;;;2.84;100.00;98708.34;5067423;28;8921;-74
2021/12/12 00:03:16;;;;;;;;;38.75;35.50;;;;;2.88;100.00;98704.97;5068245;28;8862;-76
2021/12/12 00:05:49;;;;;;;;;37.00;27.50;;;;;2.90;100.00;98708.44;5049005;28;8878;-76
2021/12/12 00:08:21;;;;;;;;;33.00;26.80;;;;;2.80;100.00;98706.56;5067430;28;8860;-76
2021/12/12 00:10:52;;;;;;;;;35.00;31.25;;;;;2.80;100.00;98701.41;5065556;28;8835;-75
2021/12/12 00:13:25;;;;;;;;;35.25;30.25;;;;;2.92;100.00;98696.44;5048653;28;8862;-74
2021/12/12 00:15:57;;;;;;;;;31.25;27.00;;;;;2.91;100.00;98707.59;5064241;28;8829;-74
2021/12/12 00:18:25;;;;;;;;;33.50;29.75;;;;;2.98;100.00;98718.84;5067025;28;8865;-76
2021/12/12 00:20:55;;;;;;;;;32.20;28.40;;;;;3.04;100.00;98715.50;5047908;28;8853;-76
2021/12/12 00:23:24;;;;;;;;;32.00;27.40;;;;;3.04;100.00;98707.78;5050384;28;9646;-76
2021/12/12 00:25:56;;;;;;;;;28.50;27.50;;;;;3.07;100.00;98706.13;5064193;28;8893;-76
2021/12/12 00:28:25;;;;;;;;;30.25;28.00;;;;;3.01;100.00;98708.63;5064082;28;8860;-75
2021/12/12 00:31:03;;;;;;;;;30.75;30.25;;;;;3.08;100.00;98702.72;5050179;28;8986;-75
2021/12/12 00:33:32;;;;;;;;;35.25;31.00;;;;;3.00;100.00;98704.28;5079776;28;8862;-75
2021/12/12 00:36:00;;;;;;;;;33.75;30.25;;;;;2.93;100.00;98712.78;5084102;28;8809;-74
2021/12/12 00:38:32;;;;;;;;;33.50;30.00;;;;;3.06;100.00;98706.97;5067572;28;8857;-76
2021/12/12 00:41:06;;;;;;;;;33.00;29.25;;;;;3.01;100.00;98700.03;5082393;28;8934;-78
2021/12/12 00:43:37;;;;;;;;;34.50;28.50;;;;;3.00;100.00;98693.13;5102102;28;8935;-75
2021/12/12 00:46:10;;;;;;;;;34.50;32.75;;;;;3.03;100.00;98694.03;5102698;28;9007;-76
2021/12/12 00:48:42;;;;;;;;;28.25;26.00;;;;;3.01;100.00;98708.63;5052291;28;8921;-76
2021/12/12 00:51:18;;;;;;;;;25.75;24.00;;;;;2.77;100.00;98696.19;5032795;28;9005;-76
2021/12/12 00:53:47;;;;;;;;;33.67;29.00;;;;;2.62;100.00;98704.53;5083975;28;8882;-76
2021/12/12 00:56:18;;;;;;;;;35.25;28.00;;;;;2.77;100.00;98710.78;5086859;28;8856;-76
2021/12/12 00:58:47;;;;;;;;;29.75;27.50;;;;;2.83;100.00;98713.44;5044478;28;8991;-75
2021/12/12 01:01:22;;;;;;;;;33.50;27.50;;;;;2.81;100.00;98707.41;5042545;28;8862;-75
2021/12/12 01:03:54;;;;;;;;;27.25;24.25;;;;;2.93;100.00;98715.34;5044578;28;8867;-76
2021/12/12 01:06:25;;;;;;;;;30.60;26.20;;;;;2.74;100.00;98719.28;5030640;28;8875;-74
2021/12/12 01:08:55;;;;;;;;;30.80;28.00;;;;;2.71;100.00;98708.97;5043386;28;8892;-75
2021/12/12 01:11:30;;;;;;;;;31.75;26.25;;;;;2.81;100.00;98700.53;5007073;28;8853;-74
2021/12/12 01:14:00;;;;;;;;;31.25;28.00;;;;;2.60;100.00;98705.34;5023718;28;8923;-76
2021/12/12 01:16:34;;;;;;;;;35.60;31.60;;;;;2.70;100.00;98709.78;4991384;28;8848;-74
2021/12/12 01:19:08;;;;;;;;;30.75;28.25;;;;;2.75;100.00;98712.47;5008713;28;8861;-74
2021/12/12 01:21:42;;;;;;;;;36.00;31.75;;;;;2.45;100.00;98716.22;5008890;28;8879;-75
2021/12/12 01:24:18;;;;;;;;;28.50;26.00;;;;;2.46;100.00;98711.09;4996186;28;8887;-76
2021/12/12 01:26:48;;;;;;;;;38.50;32.75;;;;;2.30;100.00;98698.78;5012878;28;8855;-75
2021/12/12 01:29:17;;;;;;;;;37.00;31.00;;;;;2.33;100.00;98712.59;5037291;28;9714;-75
2021/12/12 01:31:48;;;;;;;;;32.75;30.00;;;;;2.21;100.00;98716.63;5055332;28;8865;-74
2021/12/12 01:34:22;;;;;;;;;35.25;30.75;;;;;1.85;100.00;98721.06;5072498;28;8954;-76
2021/12/12 01:37:09;;;;;;;;;37.25;31.00;;;;;1.86;100.00;98715.09;5072064;28;8866;-74
2021/12/12 01:39:40;;;;;;;;;33.75;27.50;;;;;1.55;100.00;98727.28;5083585;28;8845;-75
2021/12/12 01:42:12;;;;;;;;;36.75;33.00;;;;;1.53;100.00;98713.53;5087193;28;8869;-74
2021/12/12 01:44:46;;;;;;;;;40.50;38.25;;;;;1.41;100.00;98700.41;5053434;28;8878;-74
2021/12/12 01:47:23;;;;;;;;;36.25;34.00;;;;;1.38;100.00;98723.47;5070700;28;8939;-74
2021/12/12 01:49:58;;;;;;;;;36.25;24.25;;;;;1.29;100.00;98706.16;5070270;28;8838;-76
2021/12/12 01:52:29;;;;;;;;;42.75;33.75;;;;;1.32;100.00;98702.78;5071380;28;8861;-74
2021/12/12 01:55:04;;;;;;;;;39.50;31.75;;;;;1.25;100.00;98688.94;5052273;28;8871;-73
2021/12/12 01:57:37;;;;;;;;;48.25;43.75;;;;;1.26;100.00;98690.66;5070116;28;9624;-75
2021/12/12 02:00:14;;;;;;;;;36.50;34.25;;;;;1.22;100.00;98691.44;5053265;28;8843;-73
2021/12/12 02:02:44;;;;;;;;;31.75;27.25;;;;;1.15;100.00;98675.03;5071585;28;8919;-75
2021/12/12 02:05:16;;;;;;;;;45.50;32.50;;;;;1.10;100.00;98674.03;5051961;28;8861;-74
2021/12/12 02:07:52;;;;;;;;;51.25;43.75;;;;;1.01;100.00;98686.66;5066591;28;8865;-75
2021/12/12 02:10:28;;;;;;;;;45.75;33.25;;;;;0.90;100.00;98672.72;5049629;28;8852;-76
2021/12/12 02:13:01;;;;;;;;;41.00;35.75;;;;;0.82;100.00;98682.78;5050088;28;8852;-76
2021/12/12 02:15:31;;;;;;;;;51.25;45.00;;;;;0.71;100.00;98653.44;5050227;28;8863;-78
2021/12/12 02:18:05;;;;;;;;;41.25;34.00;;;;;0.63;100.00;98678.91;5080084;28;8881;-77
2021/12/12 02:20:41;;;;;;;;;43.00;34.75;;;;;0.53;100.00;98666.66;5069712;28;8834;-76
2021/12/12 02:23:22;;;;;;;;;50.00;38.00;;;;;0.40;100.00;98655.25;5070978;28;8872;-77
2021/12/12 02:37:02;;;;;;;;;37.75;33.00;;;;;0.13;100.00;98665.63;5056348;28;8884;-77
2021/12/12 02:39:33;;;;;;;;;35.50;30.75;;;;;0.10;100.00;98660.44;5044027;28;8894;-75
2021/12/12 02:42:06;;;;;;;;;51.00;45.75;;;;;0.08;100.00;98677.50;5011256;28;8863;-75
2021/12/12 02:44:36;;;;;;;;;50.50;44.00;;;;;0.01;100.00;98670.44;5031465;28;8864;-77
2021/12/12 02:47:11;;;;;;;;;40.75;39.00;;;;;0.01;100.00;98667.88;5011361;28;8889;-76
2021/12/12 02:49:54;;;;;;;;;42.50;36.75;;;;;-0.02;100.00;98656.72;5006065;28;8878;-76
2021/12/12 02:52:28;;;;;;;;;37.00;33.75;;;;;-0.05;100.00;98655.78;5008216;28;8839;-77
2021/12/12 02:55:00;;;;;;;;;46.75;43.00;;;;;-0.06;100.00;98656.59;5017027;28;8891;-76
2021/12/12 02:57:29;;;;;;;;;45.00;41.25;;;;;-0.10;100.00;98659.91;4962654;28;8851;-77
2021/12/12 02:59:58;;;;;;;;;32.75;28.00;;;;;-0.11;100.00;98676.13;4994621;28;8847;-76
2021/12/12 03:02:30;;;;;;;;;43.50;37.00;;;;;-0.12;100.00;98648.75;5011063;28;9629;-76
2021/12/12 03:05:04;;;;;;;;;48.00;41.50;;;;;-0.10;100.00;98647.09;5011097;28;8890;-76
2021/12/12 03:07:33;;;;;;;;;46.25;40.75;;;;;-0.11;100.00;98650.50;5011176;28;8871;-76
2021/12/12 03:10:08;;;;;;;;;39.00;33.50;;;;;-0.12;100.00;98641.91;5040827;28;8945;-76
2021/12/12 03:12:38;;;;;;;;;49.00;41.00;;;;;-0.16;100.00;98642.66;5055097;28;8946;-74
2021/12/12 03:15:10;;;;;;;;;44.50;36.75;;;;;-0.15;100.00;98656.34;5071929;28;8853;-75
2021/12/12 03:17:40;;;;;;;;;36.75;35.75;;;;;-0.14;100.00;98655.53;5089889;28;8840;-76
2021/12/12 03:20:23;;;;;;;;;38.25;34.50;;;;;-0.09;100.00;98652.25;5071865;28;8953;-76
2021/12/12 03:22:57;;;;;;;;;43.25;33.50;;;;;-0.16;100.00;98664.88;5071723;28;8833;-76
2021/12/12 03:25:31;;;;;;;;;37.50;36.00;;;;;-0.11;100.00;98658.19;5055186;28;8964;-75
2021/12/12 03:28:00;;;;;;;;;33.50;30.75;;;;;-0.18;100.00;98671.66;5071443;28;9641;-75
2021/12/12 03:30:30;;;;;;;;;37.25;34.25;;;;;-0.16;100.00;98670.00;5089752;28;8857;-77
2021/12/12 03:32:59;;;;;;;;;39.75;35.00;;;;;-0.20;100.00;98664.75;5071217;28;8946;-77
2021/12/12 03:35:31;;;;;;;;;40.50;33.00;;;;;-0.23;100.00;98640.75;5055009;28;8946;-77
2021/12/12 03:37:59;;;;;;;;;43.50;37.75;;;;;-0.24;100.00;98645.03;5089372;28;9008;-78
2021/12/12 03:40:35;;;;;;;;;43.50;37.75;;;;;-0.28;100.00;98660.28;5053815;28;9628;-77
2021/12/12 03:43:09;;;;;;;;;39.50;38.75;;;;;-0.23;100.00;98651.00;5071510;28;9604;-77
2021/12/12 03:45:39;;;;;;;;;36.25;25.50;;;;;-0.27;100.00;98665.41;5089457;28;8865;-77
2021/12/12 03:48:13;;;;;;;;;34.50;30.75;;;;;-0.24;100.00;98672.34;5071203;28;8865;-77
2021/12/12 03:50:44;;;;;;;;;39.00;34.00;;;;;-0.15;100.00;98662.34;5070553;28;8866;-76
2021/12/12 03:53:13;;;;;;;;;34.50;28.50;;;;;-0.20;100.00;98679.28;5054602;28;8868;-77
2021/12/12 03:55:46;;;;;;;;;37.25;35.25;;;;;-0.23;100.00;98676.63;5089149;28;8873;-77
2021/12/12 03:58:15;;;;;;;;;46.00;41.75;;;;;-0.27;100.00;98685.91;5070832;28;8837;-77
2021/12/12 04:00:49;;;;;;;;;43.00;34.50;;;;;-0.25;100.00;98679.13;5054319;28;9692;-78
2021/12/12 04:03:19;;;;;;;;;36.00;28.50;;;;;-0.22;100.00;98683.50;5071038;28;8878;-77
2021/12/12 04:05:50;;;;;;;;;38.25;34.75;;;;;-0.26;100.00;98686.81;5070924;28;8838;-78
2021/12/12 04:08:25;;;;;;;;;39.00;30.75;;;;;-0.28;100.00;98691.00;5054474;28;8841;-78
2021/12/12 04:10:56;;;;;;;;;42.50;33.75;;;;;-0.26;100.00;98692.78;5070454;28;8877;-78
2021/12/12 04:13:25;;;;;;;;;35.75;33.00;;;;;-0.28;100.00;98697.00;5070603;28;9631;-78
2021/12/12 04:15:56;;;;;;;;;42.25;38.00;;;;;-0.27;100.00;98698.72;5070584;28;8900;-77
2021/12/12 04:18:27;;;;;;;;;45.50;31.25;;;;;-0.30;100.00;98708.00;5070570;28;8864;-78
2021/12/12 04:20:57;;;;;;;;;34.00;28.50;;;;;-0.27;100.00;98700.41;5070568;28;8833;-78
2021/12/12 04:23:28;;;;;;;;;38.75;33.75;;;;;-0.30;100.00;98696.09;5053807;28;8856;-78
2021/12/12 04:26:10;;;;;;;;;31.75;28.50;;;;;-0.30;100.00;98702.88;5070418;28;8850;-77
2021/12/12 04:28:39;;;;;;;;;35.25;33.25;;;;;-0.28;100.00;98714.94;5070530;28;8818;-78
2021/12/12 04:31:09;;;;;;;;;39.25;36.50;;;;;-0.33;100.00;98721.59;5053867;28;8853;-78
2021/12/12 04:33:38;;;;;;;;;38.50;33.50;;;;;-0.31;100.00;98696.91;5070302;28;8842;-77
2021/12/12 04:36:07;;;;;;;;;28.50;25.50;;;;;-0.28;100.00;98714.06;5047837;28;8943;-77
2021/12/12 04:38:36;;;;;;;;;43.00;37.00;;;;;-0.28;100.00;98724.31;5085169;28;8850;-78
2021/12/12 04:41:05;;;;;;;;;19.25;17.50;;;;;-0.29;100.00;98736.22;5087005;28;8959;-78
2021/12/12 04:43:36;;;;;;;;;32.00;25.25;;;;;-0.35;100.00;98717.28;5070359;28;9707;-79
2021/12/12 04:46:20;;;;;;;;;33.00;27.75;;;;;-0.28;100.00;98716.63;5070334;28;8974;-79
2021/12/12 04:51:46;;;;;;;;;28.50;25.25;;;;;-0.33;100.00;98725.88;5087919;28;9626;-77
2021/12/12 04:54:26;;;;;;;;;18.75;18.75;;;;;-0.37;100.00;98721.47;5033890;28;14271;-80
2021/12/12 04:57:00;;;;;;;;;21.50;20.00;;;;;-0.39;100.00;98739.34;5076899;28;8830;-79
2021/12/12 04:59:36;;;;;;;;;29.75;23.75;;;;;-0.42;100.00;98736.69;5069864;28;8849;-79
2021/12/12 05:02:14;;;;;;;;;24.00;22.50;;;;;-0.34;100.00;98735.25;5070220;28;8899;-78
2021/12/12 05:04:49;;;;;;;;;19.75;17.00;;;;;-0.34;100.00;98725.00;5052388;28;8830;-78
2021/12/12 05:07:23;;;;;;;;;31.50;27.50;;;;;-0.36;100.00;98731.75;5053140;28;8857;-79
2021/12/12 05:09:58;;;;;;;;;22.00;20.25;;;;;-0.41;100.00;98728.19;5069388;28;8854;-79
2021/12/12 05:12:33;;;;;;;;;29.00;21.75;;;;;-0.40;100.00;98724.78;5087240;28;8865;-78
2021/12/12 05:15:10;;;;;;;;;23.75;21.00;;;;;-0.44;100.00;98733.22;5069051;28;8992;-78
2021/12/12 05:17:42;;;;;;;;;24.25;22.50;;;;;-0.44;100.00;98744.31;5069541;28;8838;-77
2021/12/12 05:20:18;;;;;;;;;29.67;23.00;;;;;-0.47;100.00;98730.59;5066886;28;8922;-78
2021/12/12 05:22:50;;;;;;;;;32.00;27.00;;;;;-0.46;100.00;98735.72;5085990;28;8877;-79
2021/12/12 05:25:26;;;;;;;;;24.50;24.50;;;;;-0.49;100.00;98761.25;5018655;28;8854;-78
2021/12/12 05:27:59;;;;;;;;;29.00;27.25;;;;;-0.48;100.00;98750.19;5052443;28;8861;-78
2021/12/12 05:30:33;;;;;;;;;27.00;24.50;;;;;-0.49;100.00;98760.38;5069838;28;8837;-78
2021/12/12 05:33:05;;;;;;;;;26.50;23.50;;;;;-0.49;100.00;98758.69;5052934;28;8846;-78
2021/12/12 05:35:39;;;;;;;;;28.25;22.50;;;;;-0.46;100.00;98766.47;5070097;28;8845;-78
2021/12/12 05:38:09;;;;;;;;;23.50;21.50;;;;;-0.40;100.00;98756.44;5069804;28;8888;-78
2021/12/12 05:40:42;;;;;;;;;25.00;22.25;;;;;-0.43;100.00;98768.25;5053561;28;8876;-78
2021/12/12 05:43:13;;;;;;;;;31.50;24.50;;;;;-0.48;100.00;98742.50;5069672;28;8923;-79
2021/12/12 05:45:46;;;;;;;;;25.75;19.00;;;;;-0.46;100.00;98770.72;5086699;28;8861;-79
2021/12/12 05:48:15;;;;;;;;;23.50;23.50;;;;;-0.40;100.00;98770.91;5069848;28;8849;-77
2021/12/12 05:50:45;;;;;;;;;30.00;23.75;;;;;-0.50;100.00;98779.13;5069843;28;9615;-80
2021/12/12 05:53:16;;;;;;;;;24.50;22.00;;;;;-0.51;100.00;98785.97;5069666;28;8943;-78
2021/12/12 05:55:46;;;;;;;;;23.50;22.25;;;;;-0.53;100.00;98771.34;5069956;28;8846;-79
2021/12/12 05:58:18;;;;;;;;;25.00;22.00;;;;;-0.52;100.00;98785.91;5070019;28;8865;-78
2021/12/12 06:00:53;;;;;;;;;16.00;14.75;;;;;-0.52;100.00;98778.22;5053516;28;8882;-79
2021/12/12 06:03:26;;;;;;;;;27.50;24.75;;;;;-0.54;100.00;98788.41;5070016;28;8830;-78
2021/12/12 06:05:59;;;;;;;;;30.50;28.50;;;;;-0.47;100.00;98799.72;5032770;28;8867;-79
2021/12/12 06:08:29;;;;;;;;;26.75;25.00;;;;;-0.46;100.00;98796.31;5033391;28;8840;-80
2021/12/12 06:10:59;;;;;;;;;28.50;27.25;;;;;-0.53;100.00;98800.41;5036769;28;8882;-79
2021/12/12 06:13:29;;;;;;;;;27.50;24.25;;;;;-0.51;100.00;98809.00;5036474;28;8940;-78
2021/12/12 06:16:01;;;;;;;;;41.00;36.00;;;;;-0.57;100.00;98803.66;5053142;28;8862;-79
2021/12/12 06:18:32;;;;;;;;;19.75;19.75;;;;;-0.58;100.00;98822.44;5053196;28;10084;-80
2021/12/12 06:21:02;;;;;;;;;44.00;37.50;;;;;-0.55;100.00;98829.31;5036598;28;8871;-80
2021/12/12 06:23:32;;;;;;;;;30.50;29.50;;;;;-0.54;100.00;98838.75;5019758;28;9022;-79
2021/12/12 06:26:03;;;;;;;;;46.75;35.75;;;;;-0.56;100.00;98832.72;5049622;28;8838;-79
2021/12/12 06:28:35;;;;;;;;;25.75;20.00;;;;;-0.54;100.00;98846.44;5073015;28;8886;-79
2021/12/12 06:31:07;;;;;;;;;31.25;28.00;;;;;-0.55;100.00;98844.69;5022182;28;8881;-78
2021/12/12 06:33:37;;;;;;;;;34.75;33.25;;;;;-0.55;100.00;98848.09;5056080;28;8849;-78
2021/12/12 06:36:08;;;;;;;;;22.25;21.25;;;;;-0.51;100.00;98849.97;5072849;28;8942;-79
2021/12/12 06:38:42;;;;;;;;;35.00;32.00;;;;;-0.60;100.00;98850.53;5056333;28;8896;-79
2021/12/12 06:41:12;;;;;;;;;29.75;28.75;;;;;-0.61;100.00;98870.97;5056060;28;8853;-79
2021/12/12 06:43:43;;;;;;;;;17.50;17.25;;;;;-0.61;100.00;98870.97;5072646;28;8862;-81
2021/12/12 06:46:14;;;;;;;;;34.50;29.00;;;;;-0.58;100.00;98871.06;5055993;28;9001;-82
2021/12/12 06:48:44;;;;;;;;;28.00;23.50;;;;;-0.56;100.00;98872.00;5056401;28;8833;-81
2021/12/12 06:51:14;;;;;;;;;28.75;25.25;;;;;-0.57;100.00;98887.31;5072405;28;8853;-80
2021/12/12 06:53:46;;;;;;;;;9.00;7.50;;;;;-0.61;100.00;98894.00;5031105;28;8978;-81
2021/12/12 06:56:17;;;;;;;;;35.25;34.00;;;;;-0.57;100.00;98888.16;5030741;28;8833;-81
2021/12/12 06:58:48;;;;;;;;;39.25;36.75;;;;;-0.60;100.00;98899.19;5043061;28;8910;-80
2021/12/12 07:01:22;;;;;;;;;39.50;32.25;;;;;-0.57;100.00;98895.84;4985110;28;8876;-79
2021/12/12 07:03:54;;;;;;;;;30.50;28.75;;;;;-0.56;100.00;98897.59;5021358;28;8865;-79
2021/12/12 07:06:25;;;;;;;;;37.00;34.25;;;;;-0.61;100.00;98900.00;5014866;28;8876;-80
2021/12/12 07:08:58;;;;;;;;;33.25;32.00;;;;;-0.61;100.00;98922.16;5030991;28;8891;-79
2021/12/12 07:11:28;;;;;;;;;31.75;27.75;;;;;-0.59;100.00;98917.97;4981958;28;8916;-79
2021/12/12 07:13:58;;;;;;;;;30.75;24.25;;;;;-0.66;100.00;98932.28;5030917;28;8899;-80
2021/12/12 07:16:31;;;;;;;;;32.25;29.25;;;;;-0.59;100.00;98917.97;4998433;28;8865;-79
2021/12/12 07:19:01;;;;;;;;;38.25;36.25;;;;;-0.64;100.00;98915.28;5014110;28;8872;-80
2021/12/12 07:21:30;;;;;;;;;32.00;27.50;;;;;-0.72;100.00;98929.47;5030273;28;8864;-80
2021/12/12 07:24:01;;;;;;;;;35.50;35.50;;;;;-0.67;100.00;98927.94;5018709;28;8991;-80
2021/12/12 07:26:30;;;;;;;;;35.50;33.75;;;;;-0.72;100.00;98929.47;5055293;28;8849;-82
2021/12/12 07:29:00;;;;;;;;;37.00;31.00;;;;;-0.71;100.00;98923.56;5010538;28;8852;-80
2021/12/12 07:31:38;;;;;;;;;27.75;25.50;;;;;-0.71;100.00;98941.47;4977770;28;8879;-82
2021/12/12 07:34:11;;;;;;;;;38.25;36.00;;;;;-0.68;100.00;98948.38;4999821;28;8949;-81
2021/12/12 07:36:43;;;;;;;;;36.25;33.25;;;;;-0.72;100.00;98932.03;4968407;28;8835;-82
2021/12/12 07:39:15;;;;;;;;;40.25;32.25;;;;;-0.69;100.00;98947.50;4936758;28;8874;-82
2021/12/12 07:41:47;;;;;;;;;32.00;24.50;;;;;-0.77;100.00;98964.31;4930094;29;9642;-81
2021/12/12 07:44:20;;;;;;;;;17.75;15.25;;;;;-0.73;100.00;98967.84;4914499;29;9618;-81
2021/12/12 07:46:57;;;;;;;;;46.00;42.00;;;;;-0.82;100.00;98958.16;4930049;29;8861;-81
2021/12/12 07:49:32;;;;;;;;;22.00;22.00;;;;;-0.81;100.00;98957.34;4914725;29;8856;-81
2021/12/12 07:52:02;;;;;;;;;31.25;27.50;;;;;-0.80;100.00;98967.59;4914330;29;8954;-82
2021/12/12 07:54:33;;;;;;;;;31.75;27.50;;;;;-0.77;100.00;98977.09;4934620;28;8961;-82
2021/12/12 07:57:05;;;;;;;;;38.25;33.25;;;;;-0.82;100.00;98976.06;4957044;28;8862;-83
2021/12/12 07:59:37;;;;;;;;;25.75;19.75;;;;;-0.87;100.00;99018.53;4970524;28;8838;-83
2021/12/12 08:02:09;;;;;;;;;33.75;27.00;;;;;-0.83;100.00;98972.66;5031743;28;8878;-85
2021/12/12 08:04:41;;;;;;;;;38.25;27.75;;;;;-0.78;100.00;98990.72;5031406;28;8899;-86
2021/12/12 08:07:14;;;;;;;;;40.75;33.75;;;;;-0.76;100.00;98983.94;4988246;28;9286;-84
2021/12/12 08:09:46;;;;;;;;;18.50;18.50;;;;;-0.76;100.00;99001.00;4972338;28;8958;-86
2021/12/12 08:12:17;;;;;;;;;32.00;25.75;;;;;-0.77;100.00;98996.72;4982481;28;8863;-90
2021/12/12 08:14:50;;;;;;;;;33.00;30.00;;;;;-0.79;100.00;98996.66;4995005;28;8969;-90
2021/12/12 08:17:23;;;;;;;;;32.75;22.25;;;;;-0.79;100.00;99000.09;5015093;28;8888;-90
2021/12/12 08:19:57;;;;;;;;;33.50;30.25;;;;;-0.71;100.00;99018.28;4995436;28;8855;-89
2021/12/12 08:22:55;;;;;;;;;25.25;23.50;;;;;-0.76;100.00;99024.91;5009152;28;8876;-91
2021/12/12 08:25:28;;;;;;;;;33.00;29.50;;;;;-0.73;100.00;99025.03;4980275;28;8855;-89
2021/12/12 08:28:12;;;;;;;;;;;;;;;;;;;;;
2021/12/12 08:30:45;;;;;;;;;39.00;31.50;;;;;-0.67;100.00;99037.19;4975083;28;8845;-89
2021/12/12 08:33:16;;;;;;;;;33.25;25.00;;;;;-0.64;100.00;99027.06;4973996;28;8949;-90
2021/12/12 08:36:10;;;;;;;;;35.25;30.25;;;;;-0.68;100.00;99033.75;4945848;28;8890;-89
2021/12/12 08:39:05;;;;;;;;;30.25;29.00;;;;;-0.67;100.00;99027.81;4981916;28;8865;-90
2021/12/12 08:41:35;;;;;;;;;30.50;26.50;;;;;-0.73;100.00;99050.63;4958461;28;8975;-89
2021/12/12 08:44:05;;;;;;;;;16.00;16.00;;;;;-0.70;100.00;99037.94;4942858;28;8892;-89
2021/12/12 08:46:36;;;;;;;;;27.50;27.25;;;;;-0.69;100.00;99049.91;4989881;28;8872;-88
2021/12/12 08:49:08;;;;;;;;;27.75;23.00;;;;;-0.70;100.00;99054.97;4973816;28;8880;-86
2021/12/12 08:51:45;;;;;;;;;26.00;23.75;;;;;-0.71;100.00;99048.13;4989784;28;8864;-86
2021/12/12 08:54:23;;;;;;;;;27.00;24.00;;;;;-0.67;100.00;99058.53;4984471;28;8991;-84
2021/12/12 08:57:02;;;;;;;;;30.25;26.50;;;;;-0.70;100.00;99052.41;5001140;28;8866;-79
2021/12/12 08:59:34;;;;;;;;;30.25;29.25;;;;;-0.78;100.00;99059.81;5009898;28;8860;-79
2021/12/12 09:02:08;;;;;;;;;31.50;27.50;;;;;-0.71;100.00;99064.34;5029343;28;8885;-77
2021/12/12 09:04:42;;;;;;;;;18.25;18.25;;;;;-0.62;100.00;99071.50;5039493;28;9979;-80
2021/12/12 09:07:17;;;;;;;;;32.25;26.00;;;;;-0.63;100.00;99069.75;5029683;28;8857;-79
2021/12/12 09:09:51;;;;;;;;;24.25;23.25;;;;;-0.71;100.00;99073.72;5046842;28;8865;-81
2021/12/12 09:12:24;;;;;;;;;27.00;26.25;;;;;-0.66;100.00;99069.63;5044764;28;8902;-80
2021/12/12 09:15:05;;;;;;;;;19.25;17.25;;;;;-0.53;100.00;99081.19;5047044;28;8957;-80
2021/12/12 09:17:41;;;;;;;;;26.50;24.00;;;;;-0.54;100.00;99066.66;5030915;28;8873;-79
2021/12/12 09:20:17;;;;;;;;;34.00;31.25;;;;;-0.52;100.00;99063.31;5046853;28;8954;-79
2021/12/12 09:22:59;;;;;;;;;32.00;23.50;;;;;-0.44;100.00;99069.59;5030183;28;9625;-81
2021/12/12 09:25:37;;;;;;;;;26.50;24.75;;;;;-0.36;100.00;99074.09;5030756;28;8891;-81
2021/12/12 09:28:13;;;;;;;;;28.50;25.75;;;;;-0.36;100.00;99076.66;5001041;28;8869;-81
2021/12/12 09:30:43;;;;;;;;;33.00;27.25;;;;;-0.20;100.00;99073.84;5038582;28;8875;-84
2021/12/12 09:33:20;;;;;;;;;28.75;23.50;;;;;-0.20;100.00;99071.28;4978192;28;8863;-80
2021/12/12 09:35:55;;;;;;;;;21.75;19.00;;;;;-0.24;100.00;99069.44;5066941;28;8858;-78
2021/12/12 09:38:30;;;;;;;;;27.25;24.75;;;;;-0.23;100.00;99073.72;5049602;28;8834;-80
2021/12/12 09:41:28;;;;;;;;;24.25;20.00;;;;;-0.30;100.00;99074.31;5049986;28;8858;-80
2021/12/12 10:18:19;;;;;;;;;54.75;45.00;;;;;-0.68;100.00;99102.88;5113638;27;13396;-76
2021/12/12 10:20:55;;;;;;;;;36.25;26.00;;;;;-0.62;100.00;99112.47;5106134;28;8998;-76
2021/12/12 10:23:36;;;;;;;;;38.00;30.50;;;;;-0.54;100.00;99116.19;5126652;27;9759;-76
2021/12/12 10:26:08;;;;;;;;;37.00;30.50;;;;;-0.54;100.00;99111.06;5070058;28;8898;-74
2021/12/12 10:28:43;;;;;;;;;20.00;18.50;;;;;-0.41;100.00;99114.94;5066185;28;8863;-75
2021/12/12 10:31:19;;;;;;;;;24.75;21.75;;;;;-0.29;100.00;99117.06;5065601;28;8898;-76
2021/12/12 10:33:54;;;;;;;;;36.00;26.75;;;;;-0.16;100.00;99110.69;5082930;28;8847;-76
2021/12/12 10:36:30;;;;;;;;;23.00;21.00;;;;;-0.10;100.00;99119.44;5048309;28;8928;-76
2021/12/12 10:39:05;;;;;;;;;27.25;22.75;;;;;-0.15;100.00;99121.00;5048354;28;8868;-77
2021/12/12 10:41:38;;;;;;;;;27.75;24.75;;;;;-0.07;100.00;99127.25;5048941;28;8843;-76
2021/12/12 10:44:13;;;;;;;;;16.50;13.25;;;;;-0.13;100.00;99121.03;5065858;28;8890;-78
2021/12/12 10:46:51;;;;;;;;;12.25;12.25;;;;;-0.06;100.00;99128.13;5065521;28;8860;-77
2021/12/12 10:49:28;;;;;;;;;13.00;10.75;;;;;-0.14;100.00;99129.56;5046795;28;8858;-76
2021/12/12 10:52:03;;;;;;;;;29.50;24.50;;;;;-0.07;100.00;99128.97;5081597;28;8871;-76
2021/12/12 10:54:40;;;;;;;;;19.00;17.25;;;;;-0.01;100.00;99136.84;5029641;28;8860;-77
2021/12/12 10:57:15;;;;;;;;;14.40;13.40;;;;;0.09;100.00;99149.16;5080325;28;8828;-77
2021/12/12 10:59:49;;;;;;;;;14.00;9.75;;;;;-0.11;100.00;99152.75;5098722;28;8826;-77
2021/12/12 11:02:26;;;;;;;;;24.25;21.75;;;;;0.03;100.00;99154.06;5030962;28;13136;-77
2021/12/12 11:05:04;;;;;;;;;18.40;17.60;;;;;-0.10;100.00;99157.88;5030794;28;8871;-77
2021/12/12 11:07:40;;;;;;;;;26.75;21.50;;;;;-0.13;100.00;99157.81;5058774;28;8869;-79
2021/12/12 11:10:17;;;;;;;;;18.00;17.60;;;;;-0.06;100.00;99170.03;5045412;28;8869;-76
2021/12/12 11:12:52;;;;;;;;;26.50;23.00;;;;;-0.02;100.00;99166.75;5070296;28;8867;-79
2021/12/12 11:15:28;;;;;;;;;17.80;15.40;;;;;0.02;100.00;99174.53;5061276;28;8983;-77
2021/12/12 11:18:05;;;;;;;;;15.80;12.20;;;;;-0.05;100.00;99163.19;5076484;28;8860;-77
2021/12/12 11:20:40;;;;;;;;;22.25;19.00;;;;;-0.08;100.00;99173.31;5042268;28;8858;-77
2021/12/12 11:23:15;;;;;;;;;17.00;15.00;;;;;-0.04;100.00;99182.88;5027623;28;8965;-77
2021/12/12 11:25:47;;;;;;;;;19.00;17.80;;;;;-0.01;100.00;99186.41;5044544;28;8866;-77
2021/12/12 11:28:21;;;;;;;;;9.25;8.75;;;;;-0.06;100.00;99177.72;5054828;28;8862;-77
2021/12/12 11:30:56;;;;;;;;;13.00;12.20;;;;;-0.07;100.00;99180.22;5025119;28;8983;-77
2021/12/12 11:33:27;;;;;;;;;18.00;16.80;;;;;-0.08;100.00;99192.13;4976057;28;8878;-70
2021/12/12 11:35:58;;;;;;;;;9.60;9.40;;;;;0.00;100.00;99187.31;5042755;28;8864;-72
2021/12/12 11:38:39;;;;;;;;;20.50;19.00;;;;;-0.09;100.00;99182.72;5009887;28;8870;-71
2021/12/12 11:41:15;;;;;;;;;6.80;6.80;;;;;0.09;100.00;99197.00;4992391;28;9060;-72
2021/12/12 11:43:53;;;;;;;;;14.60;13.00;;;;;0.09;100.00;99192.72;5026135;28;8882;-78
2021/12/12 11:46:49;;;;;;;;;18.50;18.25;;;;;0.19;100.00;99201.66;5026703;28;8875;-82
2021/12/12 11:49:24;;;;;;;;;11.60;10.20;;;;;0.11;100.00;99209.03;5027250;28;8858;-81
2021/12/12 11:52:00;;;;;;;;;9.00;9.00;;;;;0.17;100.00;99200.69;5026400;28;8888;-76
2021/12/12 11:54:35;;;;;;;;;13.80;12.20;;;;;0.24;100.00;99194.97;5009905;28;9616;-77
2021/12/12 11:57:11;;;;;;;;;11.80;10.20;;;;;0.30;100.00;99178.91;5027758;28;9027;-78
2021/12/12 11:59:45;;;;;;;;;6.60;6.60;;;;;0.27;100.00;99187.41;5027684;28;8852;-79
2021/12/12 12:02:32;;;;;;;;;15.60;14.80;;;;;0.10;100.00;99194.50;5048530;28;8911;-78
2021/12/12 12:05:15;;;;;;;;;13.00;9.20;;;;;0.23;100.00;99210.28;5032027;28;8942;-80
2021/12/12 12:07:53;;;;;;;;;8.20;6.60;;;;;0.25;100.00;99208.69;5057601;28;8873;-77
2021/12/12 12:10:37;;;;;;;;;11.60;9.80;;;;;0.38;100.00;99209.16;5048724;28;8848;-78
2021/12/12 12:13:27;;;;;;;;;7.20;7.20;;;;;0.26;100.00;99213.84;5045113;28;8989;-80
2021/12/12 12:16:01;;;;;;;;;6.20;3.60;;;;;0.35;100.00;99216.72;5061543;28;8867;-78
2021/12/12 12:18:42;;;;;;;;;12.40;12.40;;;;;0.23;100.00;99224.00;5042819;28;8912;-83
2021/12/12 12:21:22;;;;;;;;;6.00;6.00;;;;;0.19;100.00;99233.28;5030827;28;8857;-81
2021/12/12 12:24:10;;;;;;;;;8.00;7.00;;;;;0.17;100.00;99231.47;4968076;28;8891;-79
2021/12/12 12:26:52;;;;;;;;;6.40;6.40;;;;;0.32;100.00;99233.69;5060370;28;8841;-79
2021/12/12 12:29:59;;;;;;;;;7.80;7.00;;;;;0.27;100.00;99223.28;5027831;28;9041;-78
2021/12/12 12:33:06;;;;;;;;;3.40;3.40;;;;;0.19;100.00;99229.84;5028292;28;8836;-80
2021/12/12 12:36:19;;;;;;;;;4.00;4.00;;;;;0.24;100.00;99230.00;4963441;28;8918;-78
2021/12/12 12:39:48;;;;;;;;;10.00;10.00;;;;;0.25;100.00;99232.63;4950624;28;9635;-79
2021/12/12 12:42:53;;;;;;;;;15.60;11.20;;;;;0.46;100.00;99226.50;4951096;28;8854;-81